This is the latest recevied weather packets stored in our database for station/object NR6G-5. If no packets are shown the sender has not sent any weather packets the latest 10 day(s).
| Time | Temp. | Humidity | Pressure | Rain* | Wind** | Luminosity | Snow |
|---|---|---|---|---|---|---|---|
| 1777670014 | 30.56° C | 32% | 1010.2 hPa | 0 mm | - | - | - |
| 1777669115 | 30° C | 32% | 1010.4 hPa | 0 mm | - | - | - |
| 1777668814 | 30° C | 33% | 1010.4 hPa | 0 mm | - | - | - |
| 1777666716 | 28.89° C | 36% | 1010.9 hPa | 0 mm | - | - | - |
| 1777666414 | 28.89° C | 36% | 1010.9 hPa | 0 mm | - | - | - |
| 1777666114 | 28.33° C | 38% | 1011 hPa | 0 mm | - | - | - |
| 1777665813 | 28.33° C | 37% | 1011.1 hPa | 0 mm | - | - | - |
| 1777662487 | 27.22° C | 41% | 1012 hPa | 0 mm | - | - | - |
| 1777660687 | 26.11° C | 46% | 1012.5 hPa | 0 mm | - | - | - |
| 1777660087 | 26.11° C | 47% | 1012.7 hPa | 0 mm | - | - | - |
| 1777659486 | 25.56° C | 47% | 1012.8 hPa | 0 mm | - | - | - |
| 1777659186 | 25.56° C | 49% | 1012.8 hPa | 0 mm | - | - | - |
| 1777657010 | 24.44° C | 50% | 1013.1 hPa | 0 mm | - | - | - |
| 1777656636 | 24.44° C | 50% | 1013.1 hPa | 0 mm | - | - | - |
| 1777655438 | 23.89° C | 50% | 1013.1 hPa | 0 mm | - | - | - |
| 1777655137 | 23.89° C | 51% | 1013.2 hPa | 0 mm | - | - | - |
| 1777654837 | 23.33° C | 52% | 1013.3 hPa | 0 mm | - | - | - |
| 1777654537 | 23.33° C | 51% | 1013.3 hPa | 0 mm | - | - | - |
| 1777653564 | 22.78° C | 52% | 1013.4 hPa | 0 mm | - | - | - |
| 1777652658 | 22.22° C | 51% | 1013.5 hPa | 0 mm | - | - | - |
| 1777652358 | 22.22° C | 52% | 1013.5 hPa | 0 mm | - | - | - |
| 1777652058 | 22.22° C | 52% | 1013.5 hPa | 0 mm | - | - | - |
| 1777651758 | 22.22° C | 52% | 1013.6 hPa | 0 mm | - | - | - |
| 1777651461 | 22.22° C | 51% | 1013.5 hPa | 0 mm | - | - | - |
| 1777649957 | 21.67° C | 52% | 1013.5 hPa | 0 mm | - | - | - |
* Rain latest hour (hover to see other rain measurements)
** Current wind speed in m/s (hover to see current wind gust speed)